Aberdeen, South Dakota
Current Conditions -  °F | °C
As of 12:53 AM on Sunday 23 Nov 2014 (Local Time) from KABR Reporting Station
Broken Clouds Broken Clouds  
Wind Chill: -2°   Ceiling: 11000
Heat Index:   Visibility: 10mi
Dew Point: -1°   Wind: 8mph
Humidity: 85%   Direction: 240°WSW
Pressure: 29.42"   Gusts: NA
Location:  45.46°N, 98.49°W
Report Text: KABR 230653Z AUTO 24007KT 10SM BKN110 02/M01 A2942 RMK AO2 SLP971 T00171006
Loading
Personal Weather Stations






























Interactive Weather Map New forecast layout! Learn more

10-Day Weather Forecast

Advertisements
Track Severe Weather on mobile